createdAt,value
2019-03-21T00:00:29.463Z,10.40
2019-03-21T00:02:11.178Z,10.40
2019-03-21T00:03:48.362Z,10.40
2019-03-21T00:05:25.749Z,10.40
2019-03-21T00:07:01.133Z,10.50
2019-03-21T00:08:36.513Z,10.50
2019-03-21T00:10:16.501Z,10.50
2019-03-21T00:11:58.273Z,10.50
2019-03-21T00:13:33.650Z,10.50
2019-03-21T00:15:19.756Z,10.50
2019-03-21T00:16:55.141Z,10.50
2019-03-21T00:18:31.590Z,10.50
2019-03-21T00:20:16.718Z,10.50
2019-03-21T00:21:52.089Z,10.50
2019-03-21T00:23:27.472Z,10.50
2019-03-21T00:25:03.135Z,10.50
2019-03-21T00:26:38.526Z,10.50
2019-03-21T00:28:13.903Z,10.50
2019-03-21T00:29:49.286Z,10.60
2019-03-21T00:31:24.984Z,10.50
2019-03-21T00:33:00.532Z,10.60
2019-03-21T00:34:35.899Z,10.50
2019-03-21T00:36:11.296Z,10.60
2019-03-21T00:37:46.847Z,10.60
2019-03-21T00:39:32.427Z,10.50
2019-03-21T00:41:00.270Z,10.50
2019-03-21T00:42:35.665Z,10.50
2019-03-21T00:44:18.042Z,10.50
2019-03-21T00:45:48.125Z,10.50
2019-03-21T00:47:23.513Z,10.50
2019-03-21T00:48:58.888Z,10.50
2019-03-21T00:50:34.627Z,10.50
2019-03-21T00:52:10.017Z,10.50
2019-03-21T00:53:45.384Z,10.60
2019-03-21T00:55:21.296Z,10.60
2019-03-21T00:56:56.691Z,10.60
2019-03-21T00:58:32.426Z,10.60
2019-03-21T01:00:18.274Z,10.60
2019-03-21T01:01:53.657Z,10.60
2019-03-21T01:03:29.029Z,10.60
2019-03-21T01:05:06.578Z,10.60
2019-03-21T01:06:41.969Z,10.60
2019-03-21T01:08:17.350Z,10.60
2019-03-21T01:09:52.727Z,10.60
2019-03-21T01:11:29.081Z,10.60
2019-03-21T01:13:04.455Z,10.60
2019-03-21T01:14:39.826Z,10.60
2019-03-21T01:16:15.214Z,10.60
2019-03-21T01:17:50.589Z,10.60
2019-03-21T01:19:25.960Z,10.60
2019-03-21T01:21:01.340Z,10.60
2019-03-21T01:22:36.735Z,10.60
2019-03-21T01:24:12.111Z,10.60
2019-03-21T01:25:52.008Z,10.60
2019-03-21T01:27:28.362Z,10.60
2019-03-21T01:29:03.730Z,10.60
2019-03-21T01:30:39.110Z,10.70
2019-03-21T01:32:14.491Z,10.70
2019-03-21T01:33:49.878Z,10.70
2019-03-21T01:35:25.254Z,10.70
2019-03-21T01:37:00.648Z,10.70
2019-03-21T01:38:36.037Z,10.70
2019-03-21T01:40:18.736Z,10.70
2019-03-21T01:41:54.127Z,10.70
2019-03-21T01:43:29.497Z,10.70
2019-03-21T01:45:09.927Z,10.70
2019-03-21T01:46:45.306Z,10.70
2019-03-21T01:48:20.697Z,10.70
2019-03-21T01:49:56.070Z,10.70
2019-03-21T01:51:31.444Z,10.80
2019-03-21T01:53:07.811Z,10.80
2019-03-21T01:54:43.182Z,10.80
2019-03-21T01:56:18.568Z,10.80
2019-03-21T01:57:53.955Z,10.80
2019-03-21T01:59:29.335Z,10.80
2019-03-21T02:01:05.049Z,10.80
2019-03-21T02:02:40.612Z,10.80
2019-03-21T02:04:15.990Z,10.80
2019-03-21T02:05:51.373Z,10.80
2019-03-21T02:07:26.760Z,10.80
2019-03-21T02:09:02.140Z,10.80
2019-03-21T02:10:38.589Z,10.80
2019-03-21T02:12:13.976Z,10.70
2019-03-21T02:13:49.351Z,10.70
2019-03-21T02:15:25.031Z,10.70
2019-03-21T02:17:00.485Z,10.70
2019-03-21T02:18:35.875Z,10.70
2019-03-21T02:20:17.635Z,10.70
2019-03-21T02:21:53.017Z,10.70
2019-03-21T02:23:28.477Z,10.70
2019-03-21T02:25:05.389Z,10.70
2019-03-21T02:26:40.775Z,10.70
2019-03-21T02:28:16.432Z,10.70
2019-03-21T02:29:51.799Z,10.70
2019-03-21T02:31:28.156Z,10.70
2019-03-21T02:33:30.540Z,10.70
2019-03-21T02:35:08.021Z,10.70
2019-03-21T02:36:43.638Z,10.70
2019-03-21T02:38:19.026Z,10.70
2019-03-21T02:40:00.021Z,10.70
2019-03-21T02:41:31.620Z,10.70
2019-03-21T02:43:07.012Z,10.70
2019-03-21T02:44:42.546Z,10.70
2019-03-21T02:46:18.248Z,10.70
2019-03-21T02:47:53.672Z,10.70
2019-03-21T02:49:29.046Z,10.70
2019-03-21T02:51:05.161Z,10.70
2019-03-21T02:52:40.554Z,10.70
2019-03-21T02:54:15.927Z,10.70
2019-03-21T02:55:51.557Z,10.70
2019-03-21T02:57:26.940Z,10.70
2019-03-21T02:59:02.592Z,10.70
2019-03-21T03:00:43.203Z,10.70
2019-03-21T03:02:18.676Z,10.70
2019-03-21T03:03:54.038Z,10.70
2019-03-21T03:05:34.533Z,10.70
2019-03-21T03:07:10.410Z,10.60
2019-03-21T03:08:45.789Z,10.60
2019-03-21T03:10:36.635Z,10.70
2019-03-21T03:12:12.010Z,10.60
2019-03-21T03:13:50.510Z,10.60
2019-03-21T03:15:38.062Z,10.60
2019-03-21T03:17:13.446Z,10.60
2019-03-21T03:18:48.905Z,10.50
2019-03-21T03:20:24.294Z,10.60
2019-03-21T03:21:59.671Z,10.60
2019-03-21T03:23:35.061Z,10.60
2019-03-21T03:25:16.967Z,10.60
2019-03-21T03:26:52.683Z,10.60
2019-03-21T03:28:36.356Z,10.60
2019-03-21T03:30:16.347Z,10.60
2019-03-21T03:31:51.815Z,10.60
2019-03-21T03:33:27.868Z,10.60
2019-03-21T03:35:03.670Z,10.60
2019-03-21T03:36:39.040Z,10.60
2019-03-21T03:38:14.437Z,10.60
2019-03-21T03:39:49.812Z,10.60
2019-03-21T03:41:25.197Z,10.60
2019-03-21T03:43:00.581Z,10.60
2019-03-21T03:44:35.953Z,10.60
2019-03-21T03:46:12.089Z,10.60
2019-03-21T03:47:47.471Z,10.60
2019-03-21T03:49:22.847Z,10.60
2019-03-21T03:50:58.236Z,10.50
2019-03-21T03:52:34.590Z,10.50
2019-03-21T03:54:09.977Z,10.50
2019-03-21T03:55:45.494Z,10.50
2019-03-21T03:57:20.870Z,10.50
2019-03-21T03:59:07.558Z,10.40
2019-03-21T04:00:42.940Z,10.40
2019-03-21T04:02:18.333Z,10.40
2019-03-21T04:03:53.717Z,10.40
2019-03-21T04:05:29.091Z,10.40
2019-03-21T04:07:04.463Z,10.30
2019-03-21T04:08:39.854Z,10.30
2019-03-21T04:10:37.071Z,10.30
2019-03-21T04:12:12.524Z,10.30
2019-03-21T04:13:47.914Z,10.30
2019-03-21T04:15:24.351Z,10.30
2019-03-21T04:16:59.729Z,10.30
2019-03-21T04:18:35.119Z,10.30
2019-03-21T04:20:21.145Z,10.30
2019-03-21T04:21:56.536Z,10.20
2019-03-21T04:23:31.930Z,10.20
2019-03-21T04:25:18.046Z,10.20
2019-03-21T04:26:53.468Z,10.20
2019-03-21T04:28:28.809Z,10.20
2019-03-21T04:30:07.367Z,10.20
2019-03-21T04:31:43.149Z,10.20
2019-03-21T04:33:18.789Z,10.20
2019-03-21T04:34:54.166Z,10.20
2019-03-21T04:36:29.537Z,10.20
2019-03-21T04:38:04.912Z,10.20
2019-03-21T04:39:40.296Z,10.20
2019-03-21T04:41:15.976Z,10.20
2019-03-21T04:42:51.341Z,10.20
2019-03-21T04:44:26.725Z,10.10
2019-03-21T04:46:03.622Z,10.10
2019-03-21T04:47:39.370Z,10.10
2019-03-21T04:49:14.755Z,10.10
2019-03-21T04:50:50.140Z,10.10
2019-03-21T04:52:25.530Z,10.10
2019-03-21T04:54:00.929Z,10.00
2019-03-21T04:55:36.301Z,10.00
2019-03-21T04:57:11.673Z,10.00
2019-03-21T04:58:47.044Z,9.90
2019-03-21T05:00:41.325Z,9.90
2019-03-21T05:02:17.023Z,9.90
2019-03-21T05:03:53.466Z,9.80
2019-03-21T05:05:28.839Z,9.80
2019-03-21T05:07:04.206Z,9.80
2019-03-21T05:08:39.585Z,9.80
2019-03-21T05:10:18.466Z,9.80
2019-03-21T05:11:53.847Z,9.80
2019-03-21T05:13:29.225Z,9.80
2019-03-21T05:15:07.399Z,9.80
2019-03-21T05:16:42.761Z,9.80
2019-03-21T05:18:31.508Z,9.80
2019-03-21T05:20:11.486Z,9.70
2019-03-21T05:21:47.023Z,9.70
2019-03-21T05:23:22.514Z,9.70
2019-03-21T05:24:57.896Z,9.70
2019-03-21T05:26:33.267Z,9.80
2019-03-21T05:28:09.607Z,9.80
2019-03-21T05:29:45.870Z,9.80
2019-03-21T05:31:31.730Z,9.80
2019-03-21T05:33:07.082Z,9.80
2019-03-21T05:34:42.726Z,9.70
2019-03-21T05:36:18.101Z,9.80
2019-03-21T05:37:53.467Z,9.80
2019-03-21T05:39:28.841Z,9.80
2019-03-21T05:41:04.200Z,9.80
2019-03-21T05:42:41.648Z,9.80
2019-03-21T05:44:27.846Z,9.90
2019-03-21T05:46:03.208Z,9.80
2019-03-21T05:47:38.939Z,9.90
2019-03-21T05:49:14.306Z,9.90
2019-03-21T05:50:49.663Z,9.90
2019-03-21T05:52:25.034Z,9.90
2019-03-21T05:54:00.419Z,10.00
2019-03-21T05:55:35.772Z,10.00
2019-03-21T05:57:11.140Z,10.10
2019-03-21T05:58:46.519Z,10.10
2019-03-21T06:00:32.381Z,10.10
2019-03-21T06:02:08.002Z,10.10
2019-03-21T06:03:51.406Z,10.10
2019-03-21T06:05:28.097Z,10.10
2019-03-21T06:07:22.731Z,10.10
2019-03-21T06:08:58.413Z,10.10
2019-03-21T06:10:33.794Z,10.20
2019-03-21T06:12:09.440Z,10.20
2019-03-21T06:13:45.149Z,10.40
2019-03-21T06:15:27.899Z,10.40
2019-03-21T06:17:03.271Z,10.60
2019-03-21T06:18:46.891Z,10.70
2019-03-21T06:20:50.622Z,10.80
2019-03-21T06:22:42.282Z,11.00
2019-03-21T06:24:31.803Z,11.10
2019-03-21T06:26:29.641Z,11.30
2019-03-21T06:28:05.027Z,11.50
2019-03-21T06:29:40.739Z,11.60
2019-03-21T06:31:17.096Z,11.80
2019-03-21T06:32:52.489Z,12.00
2019-03-21T06:34:28.154Z,12.20
2019-03-21T06:36:04.597Z,12.40
2019-03-21T06:37:40.282Z,12.50
2019-03-21T06:39:16.941Z,12.70
2019-03-21T06:40:52.329Z,12.90
2019-03-21T06:42:27.705Z,13.10
2019-03-21T06:44:03.084Z,13.30
2019-03-21T06:45:47.523Z,13.60
2019-03-21T06:47:15.539Z,13.80
2019-03-21T06:48:50.915Z,14.00
2019-03-21T06:50:26.309Z,14.20
2019-03-21T06:52:01.692Z,14.40
2019-03-21T06:53:37.063Z,14.60
2019-03-21T06:55:12.448Z,14.80
2019-03-21T06:56:47.828Z,15.00
2019-03-21T06:58:24.181Z,15.10
2019-03-21T06:59:59.572Z,15.30
2019-03-21T07:01:34.951Z,15.50
2019-03-21T07:03:10.333Z,15.70
2019-03-21T07:04:45.724Z,15.90
2019-03-21T07:06:21.394Z,16.10
2019-03-21T07:07:56.775Z,16.30
2019-03-21T07:09:32.163Z,16.50
2019-03-21T07:11:07.544Z,16.60
2019-03-21T07:12:42.916Z,16.80
2019-03-21T07:14:18.296Z,17.00
2019-03-21T07:15:53.694Z,17.20
2019-03-21T07:17:29.067Z,17.40
2019-03-21T07:19:04.445Z,17.60
2019-03-21T07:20:39.830Z,17.70
2019-03-21T07:22:15.207Z,18.00
2019-03-21T07:23:51.600Z,18.20
2019-03-21T07:25:27.023Z,18.40
2019-03-21T07:27:03.352Z,18.60
2019-03-21T07:28:38.812Z,18.80
2019-03-21T07:30:15.736Z,19.00
2019-03-21T07:31:51.112Z,19.10
2019-03-21T07:33:27.456Z,19.30
2019-03-21T07:35:02.843Z,19.50
2019-03-21T07:36:38.220Z,19.60
2019-03-21T07:38:13.851Z,19.80
2019-03-21T07:39:49.235Z,20.00
2019-03-21T07:41:24.926Z,20.10
2019-03-21T07:43:00.321Z,20.30
2019-03-21T07:44:35.711Z,20.40
2019-03-21T07:46:11.091Z,20.60
2019-03-21T07:47:46.463Z,20.70
2019-03-21T07:49:21.850Z,20.90
2019-03-21T07:50:57.251Z,21.00
2019-03-21T07:52:32.622Z,21.20
2019-03-21T07:54:08.009Z,21.30
2019-03-21T07:55:43.397Z,21.50
2019-03-21T07:57:18.782Z,21.60
2019-03-21T07:58:54.163Z,21.80
2019-03-21T08:00:29.549Z,21.90
2019-03-21T08:02:05.063Z,22.10
2019-03-21T08:03:40.433Z,22.20
2019-03-21T08:05:16.452Z,22.30
2019-03-21T08:06:51.827Z,22.40
2019-03-21T08:08:27.214Z,22.60
2019-03-21T08:10:02.604Z,22.60
2019-03-21T08:11:37.980Z,22.80
2019-03-21T08:13:13.388Z,22.90
2019-03-21T08:14:48.758Z,23.00
2019-03-21T08:16:24.722Z,23.10
2019-03-21T08:18:02.693Z,23.20
2019-03-21T08:19:37.230Z,23.40
2019-03-21T08:21:14.197Z,23.50
2019-03-21T08:22:49.745Z,23.60
2019-03-21T08:24:25.508Z,23.70
2019-03-21T08:26:01.583Z,23.90
2019-03-21T08:27:37.543Z,24.00
2019-03-21T08:29:12.944Z,24.10
2019-03-21T08:31:11.568Z,24.20
2019-03-21T08:32:46.952Z,24.30
2019-03-21T08:34:22.336Z,24.40
2019-03-21T08:35:57.727Z,24.50
2019-03-21T08:37:33.191Z,24.50
2019-03-21T08:39:09.233Z,24.60
2019-03-21T08:40:44.631Z,24.60
2019-03-21T08:42:20.014Z,24.70
2019-03-21T08:43:55.833Z,24.80
2019-03-21T08:45:31.217Z,24.80
2019-03-21T08:47:06.598Z,24.90
2019-03-21T08:48:41.978Z,25.00
2019-03-21T08:50:17.645Z,25.00
2019-03-21T08:51:53.018Z,25.10
2019-03-21T08:53:28.401Z,25.20
2019-03-21T08:55:06.591Z,25.30
2019-03-21T08:56:41.979Z,25.30
2019-03-21T08:58:18.431Z,25.40
2019-03-21T08:59:53.830Z,25.50
2019-03-21T09:01:30.193Z,25.60
2019-03-21T09:03:05.917Z,25.60
2019-03-21T09:04:41.296Z,25.70
2019-03-21T09:06:16.678Z,25.70
2019-03-21T09:07:52.092Z,25.80
2019-03-21T09:09:28.608Z,25.90
2019-03-21T09:11:03.998Z,25.90
2019-03-21T09:12:39.383Z,26.00
2019-03-21T09:14:14.756Z,26.10
2019-03-21T09:15:50.146Z,26.10
2019-03-21T09:17:25.535Z,26.20
2019-03-21T09:19:00.921Z,26.30
2019-03-21T09:20:36.305Z,26.30
2019-03-21T09:22:11.699Z,26.30
2019-03-21T09:23:47.341Z,26.40
2019-03-21T09:25:22.720Z,26.50
2019-03-21T09:26:59.243Z,26.50
2019-03-21T09:28:34.618Z,26.60
2019-03-21T09:30:15.166Z,26.70
2019-03-21T09:31:50.556Z,26.70
2019-03-21T09:33:25.929Z,26.80
2019-03-21T09:35:01.310Z,26.80
2019-03-21T09:36:36.705Z,26.80
2019-03-21T09:38:12.104Z,26.90
2019-03-21T09:39:47.815Z,27.00
2019-03-21T09:41:23.213Z,27.10
2019-03-21T09:42:59.726Z,27.20
2019-03-21T09:44:35.103Z,27.30
2019-03-21T09:46:10.493Z,27.40
2019-03-21T09:47:45.868Z,27.40
2019-03-21T09:49:21.245Z,27.50
2019-03-21T09:50:56.899Z,27.60
2019-03-21T09:52:32.282Z,27.60
2019-03-21T09:54:09.950Z,27.70
2019-03-21T09:55:44.734Z,27.80
2019-03-21T09:57:20.117Z,27.80
2019-03-21T09:58:55.745Z,27.90
2019-03-21T10:00:37.029Z,28.00
2019-03-21T10:02:12.416Z,28.00
2019-03-21T10:03:47.800Z,28.00
2019-03-21T10:05:23.184Z,28.10
2019-03-21T10:06:58.587Z,28.20
2019-03-21T10:08:33.967Z,28.30
2019-03-21T10:10:15.041Z,28.30
2019-03-21T10:11:50.430Z,28.30
2019-03-21T10:13:25.819Z,28.30
2019-03-21T10:15:01.516Z,28.30
2019-03-21T10:16:36.897Z,28.30
2019-03-21T10:18:12.273Z,28.40
2019-03-21T10:19:48.485Z,28.40
2019-03-21T10:21:23.915Z,28.40
2019-03-21T10:22:59.322Z,28.50
2019-03-21T10:24:34.713Z,28.60
2019-03-21T10:26:11.070Z,28.70
2019-03-21T10:27:46.462Z,28.80
2019-03-21T10:29:21.844Z,28.80
2019-03-21T10:30:57.431Z,28.90
2019-03-21T10:32:32.779Z,29.00
2019-03-21T10:34:08.159Z,29.00
2019-03-21T10:35:43.609Z,29.10
2019-03-21T10:37:19.002Z,29.10
2019-03-21T10:38:54.382Z,29.10
2019-03-21T10:40:29.762Z,29.20
2019-03-21T10:42:05.151Z,29.20
2019-03-21T10:43:40.533Z,29.30
2019-03-21T10:45:16.924Z,29.30
2019-03-21T10:46:52.304Z,29.30
2019-03-21T10:48:27.692Z,29.30
2019-03-21T10:50:04.669Z,29.30
2019-03-21T10:51:40.050Z,29.30
2019-03-21T10:53:15.718Z,29.30
2019-03-21T10:54:51.102Z,29.40
2019-03-21T10:56:26.479Z,29.40
2019-03-21T10:58:01.873Z,29.30
2019-03-21T10:59:38.229Z,29.30
2019-03-21T11:01:13.946Z,29.30
2019-03-21T11:02:49.338Z,29.30
2019-03-21T11:04:24.709Z,29.40
2019-03-21T11:06:00.358Z,29.40
2019-03-21T11:07:35.745Z,29.50
2019-03-21T11:09:11.129Z,29.60
2019-03-21T11:10:47.336Z,29.60
2019-03-21T11:12:23.852Z,29.70
2019-03-21T11:13:59.247Z,29.70
2019-03-21T11:15:35.336Z,29.70
2019-03-21T11:17:10.723Z,29.80
2019-03-21T11:18:46.124Z,29.80
2019-03-21T11:20:33.282Z,29.80
2019-03-21T11:22:08.658Z,29.80
2019-03-21T11:23:44.044Z,29.80
2019-03-21T11:25:19.423Z,29.80
2019-03-21T11:26:54.802Z,29.80
2019-03-21T11:28:30.188Z,29.70
2019-03-21T11:30:16.044Z,29.50
2019-03-21T11:31:45.467Z,29.50
2019-03-21T11:33:20.841Z,29.40
2019-03-21T11:34:56.467Z,29.20
2019-03-21T11:36:38.316Z,29.00
2019-03-21T11:38:09.986Z,28.80
2019-03-21T11:39:45.375Z,28.50
2019-03-21T11:41:20.761Z,28.10
2019-03-21T11:42:56.775Z,27.80
2019-03-21T11:44:33.128Z,27.40
2019-03-21T11:46:08.507Z,27.10
2019-03-21T11:47:43.896Z,26.80
2019-03-21T11:49:19.274Z,26.50
2019-03-21T11:50:54.652Z,26.20
2019-03-21T11:52:30.025Z,26.00
2019-03-21T11:54:06.393Z,25.80
2019-03-21T11:55:41.776Z,25.70
2019-03-21T11:57:17.392Z,25.60
2019-03-21T11:58:52.795Z,25.50
2019-03-21T12:00:29.206Z,25.40
2019-03-21T12:02:04.587Z,25.30
2019-03-21T12:03:39.964Z,25.30
2019-03-21T12:05:15.424Z,25.20
2019-03-21T12:06:50.817Z,25.10
2019-03-21T12:08:26.205Z,25.00
2019-03-21T12:10:01.607Z,24.90
2019-03-21T12:11:36.986Z,24.70
2019-03-21T12:13:12.370Z,24.60
2019-03-21T12:14:47.757Z,24.50
2019-03-21T12:16:23.131Z,24.40
2019-03-21T12:17:58.522Z,24.40
2019-03-21T12:19:33.898Z,24.40
2019-03-21T12:21:09.556Z,24.40
2019-03-21T12:22:47.237Z,24.50
2019-03-21T12:24:22.062Z,24.50
2019-03-21T12:25:57.401Z,24.50
2019-03-21T12:27:32.776Z,24.50
2019-03-21T12:29:08.157Z,24.60
2019-03-21T12:30:43.611Z,24.50
2019-03-21T12:32:19.358Z,24.50
2019-03-21T12:33:55.118Z,24.50
2019-03-21T12:35:30.513Z,24.50
2019-03-21T12:37:05.887Z,24.50
2019-03-21T12:38:42.246Z,24.60
2019-03-21T12:40:17.630Z,24.50
2019-03-21T12:41:53.007Z,24.50
2019-03-21T12:43:28.382Z,24.40
2019-03-21T12:45:06.127Z,24.40
2019-03-21T12:46:41.772Z,24.40
2019-03-21T12:48:17.161Z,24.40
2019-03-21T12:49:52.542Z,24.40
2019-03-21T12:51:27.924Z,24.40
2019-03-21T12:53:03.373Z,24.40
2019-03-21T12:54:39.955Z,24.40
2019-03-21T12:56:15.340Z,24.40
2019-03-21T12:57:51.061Z,24.40
2019-03-21T12:59:26.448Z,24.40
2019-03-21T13:01:01.837Z,24.40
2019-03-21T13:02:37.221Z,24.30
2019-03-21T13:04:12.610Z,24.30
2019-03-21T13:05:47.998Z,24.20
2019-03-21T13:07:23.376Z,24.20
2019-03-21T13:08:58.749Z,24.20
2019-03-21T13:10:34.139Z,24.10
2019-03-21T13:12:10.168Z,24.10
2019-03-21T13:13:45.554Z,24.10
2019-03-21T13:15:29.432Z,24.10
2019-03-21T13:16:58.014Z,24.10
2019-03-21T13:18:33.392Z,24.00
2019-03-21T13:20:08.914Z,24.00
2019-03-21T13:21:44.310Z,23.90
2019-03-21T13:23:19.685Z,23.90
2019-03-21T13:24:55.062Z,23.80
2019-03-21T13:26:30.446Z,23.70
2019-03-21T13:28:06.332Z,23.70
2019-03-21T13:29:41.712Z,23.60
2019-03-21T13:31:17.120Z,23.50
2019-03-21T13:32:52.504Z,23.50
2019-03-21T13:34:27.897Z,23.40
2019-03-21T13:36:03.262Z,23.40
2019-03-21T13:37:38.651Z,23.30
2019-03-21T13:39:14.029Z,23.20
2019-03-21T13:40:49.415Z,23.20
2019-03-21T13:42:24.805Z,23.10
2019-03-21T13:44:00.186Z,23.00
2019-03-21T13:45:35.574Z,22.90
2019-03-21T13:47:12.394Z,22.80
2019-03-21T13:48:47.776Z,22.70
2019-03-21T13:50:23.154Z,22.60
2019-03-21T13:51:58.541Z,22.50
2019-03-21T13:53:33.923Z,22.50
2019-03-21T13:55:11.774Z,22.40
2019-03-21T13:56:47.407Z,22.30
2019-03-21T13:58:23.047Z,22.30
2019-03-21T13:59:58.436Z,22.20
2019-03-21T14:01:33.809Z,22.20
2019-03-21T14:03:09.200Z,22.10
2019-03-21T14:04:44.572Z,22.00
2019-03-21T14:06:19.943Z,22.00
2019-03-21T14:07:55.342Z,21.90
2019-03-21T14:09:30.733Z,21.90
2019-03-21T14:11:06.171Z,21.90
2019-03-21T14:12:41.555Z,21.80
2019-03-21T14:14:16.966Z,21.80
2019-03-21T14:15:52.338Z,21.70
2019-03-21T14:17:27.722Z,21.70
2019-03-21T14:19:03.104Z,21.60
2019-03-21T14:20:38.473Z,21.60
2019-03-21T14:22:13.855Z,21.60
2019-03-21T14:23:49.227Z,21.60
2019-03-21T14:25:24.604Z,21.60
2019-03-21T14:26:59.982Z,21.50
2019-03-21T14:28:35.370Z,21.50
2019-03-21T14:30:14.819Z,21.50
2019-03-21T14:31:50.207Z,21.40
2019-03-21T14:33:25.601Z,21.40
2019-03-21T14:35:00.975Z,21.30
2019-03-21T14:36:36.348Z,21.30
2019-03-21T14:38:13.362Z,21.30
2019-03-21T14:39:48.836Z,21.30
2019-03-21T14:41:24.207Z,21.30
2019-03-21T14:42:59.588Z,21.30
2019-03-21T14:44:34.973Z,21.20
2019-03-21T14:46:10.344Z,21.20
2019-03-21T14:47:46.009Z,21.20
2019-03-21T14:49:21.385Z,21.10
2019-03-21T14:50:56.759Z,21.10
2019-03-21T14:52:32.142Z,21.10
2019-03-21T14:54:07.519Z,21.10
2019-03-21T14:55:47.486Z,21.00
2019-03-21T14:57:20.312Z,21.00
2019-03-21T14:58:55.707Z,21.00
2019-03-21T15:00:31.072Z,21.00
2019-03-21T15:02:06.461Z,21.00
2019-03-21T15:03:41.841Z,21.00
2019-03-21T15:05:17.911Z,20.90
2019-03-21T15:06:53.285Z,20.90
2019-03-21T15:08:28.667Z,20.90
2019-03-21T15:10:06.788Z,20.80
2019-03-21T15:11:42.267Z,20.80
2019-03-21T15:13:17.975Z,20.80
2019-03-21T15:14:53.335Z,20.70
2019-03-21T15:16:29.596Z,20.70
2019-03-21T15:18:04.986Z,20.70
2019-03-21T15:19:41.406Z,20.70
2019-03-21T15:21:17.354Z,20.70
2019-03-21T15:22:52.742Z,20.70
2019-03-21T15:24:28.111Z,20.60
2019-03-21T15:26:03.562Z,20.60
2019-03-21T15:27:39.274Z,20.60
2019-03-21T15:29:14.647Z,20.60
2019-03-21T15:30:50.023Z,20.60
2019-03-21T15:32:25.398Z,20.60
2019-03-21T15:34:01.034Z,20.70
2019-03-21T15:35:36.400Z,20.60
2019-03-21T15:37:11.792Z,20.60
2019-03-21T15:38:48.304Z,20.60
2019-03-21T15:40:23.676Z,20.70
2019-03-21T15:41:59.138Z,20.70
2019-03-21T15:43:34.535Z,20.60
2019-03-21T15:45:22.344Z,20.60
2019-03-21T15:46:50.985Z,20.60
2019-03-21T15:48:26.624Z,20.60
2019-03-21T15:50:02.978Z,20.60
2019-03-21T15:51:38.356Z,20.60
2019-03-21T15:53:13.755Z,20.60
2019-03-21T15:54:49.137Z,20.60
2019-03-21T15:56:24.526Z,20.60
2019-03-21T15:57:59.903Z,20.50
2019-03-21T15:59:35.296Z,20.50
2019-03-21T16:01:10.672Z,20.50
2019-03-21T16:02:46.053Z,20.50
2019-03-21T16:04:21.449Z,20.50
2019-03-21T16:05:56.866Z,20.50
2019-03-21T16:07:32.248Z,20.50
2019-03-21T16:09:08.207Z,20.40
2019-03-21T16:10:43.584Z,20.40
2019-03-21T16:12:20.074Z,20.40
2019-03-21T16:13:55.467Z,20.40
2019-03-21T16:15:30.844Z,20.40
2019-03-21T16:17:06.219Z,20.40
2019-03-21T16:18:41.605Z,20.30
2019-03-21T16:20:16.980Z,20.30
2019-03-21T16:21:52.357Z,20.30
2019-03-21T16:23:27.734Z,20.30
2019-03-21T16:25:03.672Z,20.30
2019-03-21T16:26:39.060Z,20.20
2019-03-21T16:28:14.426Z,20.20
2019-03-21T16:29:50.581Z,20.20
2019-03-21T16:31:25.973Z,20.20
2019-03-21T16:33:01.362Z,20.20
2019-03-21T16:34:37.017Z,20.20
2019-03-21T16:36:12.401Z,20.10
2019-03-21T16:37:47.776Z,20.10
2019-03-21T16:39:23.158Z,20.10
2019-03-21T16:40:58.535Z,20.00
2019-03-21T16:42:33.919Z,20.00
2019-03-21T16:44:09.316Z,20.00
2019-03-21T16:45:44.697Z,20.00
2019-03-21T16:47:20.075Z,19.90
2019-03-21T16:48:55.452Z,19.90
2019-03-21T16:50:30.833Z,19.90
2019-03-21T16:52:06.986Z,19.80
2019-03-21T16:53:43.859Z,19.80
2019-03-21T16:55:19.455Z,19.80
2019-03-21T16:56:54.828Z,19.70
2019-03-21T16:58:30.211Z,19.70
2019-03-21T17:00:18.263Z,19.60
2019-03-21T17:01:53.613Z,19.60
2019-03-21T17:03:29.253Z,19.60
2019-03-21T17:05:06.975Z,19.50
2019-03-21T17:06:43.325Z,19.50
2019-03-21T17:08:18.721Z,19.50
2019-03-21T17:09:54.113Z,19.40
2019-03-21T17:11:29.496Z,19.40
2019-03-21T17:13:05.118Z,19.40
2019-03-21T17:14:41.713Z,19.30
2019-03-21T17:16:17.094Z,19.30
2019-03-21T17:17:53.238Z,19.30
2019-03-21T17:19:28.644Z,19.20
2019-03-21T17:21:04.356Z,19.20
2019-03-21T17:22:39.814Z,19.10
2019-03-21T17:24:15.224Z,19.10
2019-03-21T17:25:50.583Z,19.10
2019-03-21T17:27:26.029Z,19.00
2019-03-21T17:29:01.411Z,19.00
2019-03-21T17:30:37.082Z,18.90
2019-03-21T17:32:12.721Z,18.90
2019-03-21T17:33:48.105Z,18.90
2019-03-21T17:35:24.186Z,18.80
2019-03-21T17:36:59.644Z,18.80
2019-03-21T17:38:35.024Z,18.80
2019-03-21T17:40:13.894Z,18.70
2019-03-21T17:41:49.517Z,18.70
2019-03-21T17:43:24.895Z,18.60
2019-03-21T17:45:00.295Z,18.60
2019-03-21T17:46:35.682Z,18.60
2019-03-21T17:48:11.063Z,18.50
2019-03-21T17:49:46.451Z,18.50
2019-03-21T17:51:22.090Z,18.50
2019-03-21T17:52:57.819Z,18.40
2019-03-21T17:54:41.288Z,18.40
2019-03-21T17:56:11.261Z,18.30
2019-03-21T17:57:46.637Z,18.30
2019-03-21T17:59:22.024Z,18.30
2019-03-21T18:00:57.429Z,18.20
2019-03-21T18:02:32.946Z,18.20
2019-03-21T18:04:08.279Z,18.20
2019-03-21T18:05:43.674Z,18.10
2019-03-21T18:07:19.070Z,18.10
2019-03-21T18:08:55.420Z,18.00
2019-03-21T18:10:35.353Z,18.00
2019-03-21T18:12:10.726Z,18.00
2019-03-21T18:13:46.108Z,18.00
2019-03-21T18:15:21.602Z,17.90
2019-03-21T18:16:56.979Z,17.90
2019-03-21T18:18:32.629Z,17.80
2019-03-21T18:20:08.356Z,17.80
2019-03-21T18:21:44.001Z,17.80
2019-03-21T18:23:19.385Z,17.70
2019-03-21T18:24:54.789Z,17.70
2019-03-21T18:26:31.242Z,17.60
2019-03-21T18:28:08.660Z,17.60
2019-03-21T18:29:43.703Z,17.60
2019-03-21T18:31:19.114Z,17.50
2019-03-21T18:32:54.776Z,17.50
2019-03-21T18:34:30.182Z,17.40
2019-03-21T18:36:05.713Z,17.40
2019-03-21T18:37:41.108Z,17.30
2019-03-21T18:39:16.509Z,17.30
2019-03-21T18:40:51.906Z,17.30
2019-03-21T18:42:27.308Z,17.30
2019-03-21T18:44:02.708Z,17.20
2019-03-21T18:45:38.101Z,17.20
2019-03-21T18:47:13.821Z,17.10
2019-03-21T18:48:49.212Z,17.10
2019-03-21T18:50:24.593Z,17.10
2019-03-21T18:52:00.060Z,17.00
2019-03-21T18:53:36.507Z,17.00
2019-03-21T18:55:12.205Z,17.00
2019-03-21T18:56:47.598Z,16.90
2019-03-21T18:58:23.009Z,16.90
2019-03-21T18:59:59.362Z,16.90
2019-03-21T19:01:34.963Z,16.80
2019-03-21T19:03:10.351Z,16.80
2019-03-21T19:04:45.740Z,16.80
2019-03-21T19:06:21.140Z,16.70
2019-03-21T19:07:56.531Z,16.70
2019-03-21T19:09:31.927Z,16.70
2019-03-21T19:11:07.318Z,16.60
2019-03-21T19:12:43.086Z,16.60
2019-03-21T19:14:18.469Z,16.50
2019-03-21T19:15:53.847Z,16.50
2019-03-21T19:17:29.363Z,16.40
2019-03-21T19:19:05.239Z,16.40
2019-03-21T19:20:41.068Z,16.40
2019-03-21T19:22:16.472Z,16.30
2019-03-21T19:23:52.145Z,16.30
2019-03-21T19:25:27.607Z,16.20
2019-03-21T19:27:03.075Z,16.20
2019-03-21T19:28:38.458Z,16.20
2019-03-21T19:30:21.669Z,16.10
2019-03-21T19:31:57.061Z,16.10
2019-03-21T19:33:32.449Z,16.00
2019-03-21T19:35:08.041Z,16.00
2019-03-21T19:36:43.434Z,15.90
2019-03-21T19:38:19.641Z,15.90
2019-03-21T19:39:55.023Z,15.90
2019-03-21T19:41:30.418Z,15.80
2019-03-21T19:43:07.087Z,15.80
2019-03-21T19:44:42.612Z,15.80
2019-03-21T19:46:18.001Z,15.80
2019-03-21T19:47:53.402Z,15.70
2019-03-21T19:49:28.785Z,15.70
2019-03-21T19:51:04.333Z,15.70
2019-03-21T19:52:40.703Z,15.60
2019-03-21T19:54:17.058Z,15.60
2019-03-21T19:55:52.445Z,15.60
2019-03-21T19:57:27.850Z,15.50
2019-03-21T19:59:03.243Z,15.50
2019-03-21T20:00:38.624Z,15.40
2019-03-21T20:02:14.007Z,15.40
2019-03-21T20:03:49.429Z,15.40
2019-03-21T20:05:24.812Z,15.30
2019-03-21T20:07:01.325Z,15.30
2019-03-21T20:08:36.724Z,15.20
2019-03-21T20:10:15.823Z,15.20
2019-03-21T20:11:51.538Z,15.10
2019-03-21T20:13:26.940Z,15.10
2019-03-21T20:15:02.332Z,15.00
2019-03-21T20:16:37.790Z,15.00
2019-03-21T20:18:13.499Z,14.90
2019-03-21T20:19:48.887Z,14.90
2019-03-21T20:21:24.276Z,14.80
2019-03-21T20:23:00.747Z,14.80
2019-03-21T20:24:36.203Z,14.70
2019-03-21T20:26:11.840Z,14.70
2019-03-21T20:27:47.217Z,14.60
2019-03-21T20:29:22.608Z,14.60
2019-03-21T20:30:57.989Z,14.50
2019-03-21T20:32:33.388Z,14.50
2019-03-21T20:34:08.776Z,14.50
2019-03-21T20:35:44.158Z,14.40
2019-03-21T20:37:19.534Z,14.40
2019-03-21T20:38:55.205Z,14.40
2019-03-21T20:40:30.589Z,14.30